Flight Track Log - Related Links

Times and Time Zones

All times are in EDT time to prevent confusion due to time zone crossing. See the DAL1981 flight status page for this flight to view local times or setup timezone preferences in your user account.

Time Position Orientation Groundspeed Altitude Reporting Facility
EDT Latitude Longitude Course Direction KTS MPH feet Rate Location/Type
Tue 04:02:19 PM 38.7500 -121.5667 124° Southeast 198 228 1,900  Level Northern Cal TRACON
Tue 04:03:19 PM 38.7500 -121.4833 90° East 240 276 4,800 2,508 Climbing Northern Cal TRACON
Tue 04:05:00 PM 38.9243 -120.9710 76° East  Level Estimated
Tue 04:05:16 PM 38.7594 -121.3117 86° East 278 320 9,300  Level Oakland Center
Tue 04:06:00 PM 38.9810 -120.8155 76° East  Level Estimated
Tue 04:06:17 PM 38.7550 -121.2019 93° East 304 350 10,800  Level Oakland Center
Tue 04:07:00 PM 38.9063 -120.6731 124° Southeast  Level FlightAware Approximate
Tue 04:07:19 PM 38.7508 -121.0664 92° East 371 427 12,000  Level Oakland Center
Tue 04:08:20 PM 38.7453 -120.9211 93° East 397 457 14,000 2,098 Climbing Oakland Center
Tue 04:09:22 PM 38.7939 -120.7583 69° East 429 494 16,300 1,951 Climbing Oakland Center
Tue 04:10:23 PM 38.8706 -120.6350 51° Northeast 435 501 18,000 2,341 Climbing Oakland Center
Tue 04:11:25 PM 38.9447 -120.5161 51° Northeast 434 499 21,100 1,756 Climbing Oakland Center
Tue 04:12:26 PM 39.0217 -120.3936 51° Northeast 434 499 21,600 927 Climbing Oakland Center
Tue 04:13:28 PM 39.1047 -120.2608 51° Northeast 470 541 23,000 1,659 Climbing Oakland Center
Tue 04:14:29 PM 39.1953 -120.1133 52° Northeast 473 544 25,000 1,721 Climbing Oakland Center
Tue 04:15:30 PM 39.2786 -119.9811 51° Northeast 474 545 26,500 1,415 Climbing Oakland Center
Tue 04:16:32 PM 39.3594 -119.8489 52° Northeast 470 541 27,900 1,854 Climbing Oakland Center
Tue 04:17:33 PM 39.4408 -119.7189 51° Northeast 464 534 30,300 1,902 Climbing Oakland Center
Tue 04:18:35 PM 39.5144 -119.5956 52° Northeast 433 498 31,800 878 Climbing Oakland Center
Tue 04:19:36 PM 39.5903 -119.4717 52° Northeast 437 503 32,100 683 Climbing Oakland Center
Tue 04:20:38 PM 39.6686 -119.3422 52° Northeast 452 520 33,200 683 Climbing Oakland Center
Tue 04:21:39 PM 39.7464 -119.2133 52° Northeast 451 519 33,500 344 Climbing Oakland Center
Tue 04:22:40 PM 39.8269 -119.0792 52° Northeast 463 533 33,900 732 Climbing Oakland Center
Tue 04:23:42 PM 39.9072 -118.9431 52° Northeast 469 540 35,000 537 Climbing Oakland Center
Tue 04:24:43 PM 39.9872 -118.8106 52° Northeast 465 535 35,000  Level Oakland Center
Tue 04:25:44 PM 40.0700 -118.6697 52° Northeast 480 552 35,000  Level Oakland Center
Tue 04:26:46 PM 40.1506 -118.4778 61° Northeast 504 580 35,000  Level Oakland Center
Tue 04:27:34 PM 40.1878 -118.3461 70° East 497 572 35,000  Level Salt Lake Center
Tue 04:28:35 PM 40.2333 -118.1825 70° East 500 575 35,000  Level Salt Lake Center
Tue 04:29:37 PM 40.2786 -118.0203 70° East 497 572 35,000  Level Salt Lake Center
Tue 04:30:39 PM 40.3300 -117.8272 71° East 500 575 35,000  Level Salt Lake Center
Tue 04:31:41 PM 40.3742 -117.6636 70° East 498 573 35,000  Level Salt Lake Center
Tue 04:32:42 PM 40.4250 -117.4706 71° East 499 574 35,000  Level Salt Lake Center
Tue 04:33:44 PM 40.4689 -117.3050 71° East 500 575 35,000 242 Level Salt Lake Center
Tue 04:34:46 PM 40.5200 -117.1111 71° East 499 574 35,500 439 Climbing Salt Lake Center
Tue 04:35:47 PM 40.5647 -116.9428 71° East 501 577 35,900 439 Climbing Salt Lake Center
Tue 04:36:49 PM 40.6247 -116.7822 64° Northeast 502 578 36,400 532 Climbing Salt Lake Center
Tue 04:37:51 PM 40.6961 -116.5981 63° Northeast 502 578 37,000 290 Climbing Salt Lake Center
Tue 04:38:53 PM 40.7575 -116.4392 63° Northeast 506 582 37,000  Level Salt Lake Center
Tue 04:39:54 PM 40.8192 -116.2775 63° Northeast 512 589 37,000  Level Salt Lake Center
Tue 04:40:56 PM 40.8928 -116.0886 63° Northeast 518 596 37,000  Level Salt Lake Center
Tue 04:41:58 PM 40.9539 -115.9286 63° Northeast 512 589 37,000  Level Salt Lake Center
Tue 04:42:59 PM 41.0247 -115.7397 64° Northeast 513 590 37,000  Level Salt Lake Center
Tue 04:44:01 PM 41.0858 -115.5750 64° Northeast 517 595 37,000  Level Salt Lake Center
Tue 04:45:03 PM 41.1483 -115.4108 63° Northeast 520 598 37,000 49 Level Salt Lake Center
Tue 04:46:04 PM 41.2192 -115.2178 64° Northeast 520 598 37,100  Climbing Salt Lake Center
Tue 04:47:06 PM 41.2811 -115.0542 63° Northeast 519 597 37,000 -48 Descending Salt Lake Center
Tue 04:48:08 PM 41.3522 -114.8606 64° Northeast 521 600 37,000 -48 Level Salt Lake Center
Tue 04:49:10 PM 41.4178 -114.6828 64° Northeast 525 604 36,900  Descending Salt Lake Center
Tue 04:50:11 PM 41.4814 -114.5064 64° Northeast 529 609 37,000 98 Climbing Salt Lake Center
Tue 04:51:13 PM 41.5456 -114.3272 64° Northeast 533 613 37,100  Climbing Salt Lake Center
Tue 04:52:15 PM 41.6097 -114.1500 64° Northeast 532 612 37,000 -48 Descending Salt Lake Center
Tue 04:53:17 PM 41.6717 -113.9708 65° Northeast 532 612 37,000  Level Salt Lake Center
Tue 04:54:18 PM 41.7372 -113.7917 64° Northeast 535 616 37,000 49 Level Salt Lake Center
Tue 04:55:20 PM 41.8128 -113.5758 65° Northeast 533 613 37,100 -48 Climbing Salt Lake Center
Tue 04:56:22 PM 41.8761 -113.3961 65° Northeast 533 613 36,900 -49 Descending Salt Lake Center
Tue 04:57:23 PM 41.9378 -113.2161 65° Northeast 531 611 37,000 49 Climbing Salt Lake Center
Tue 04:58:25 PM 42.0003 -113.0361 65° Northeast 532 612 37,000  Level Salt Lake Center
Tue 04:59:27 PM 42.0619 -112.8550 65° Northeast 533 613 37,000  Level Salt Lake Center
Tue 05:00:28 PM 42.1239 -112.6733 65° Northeast 533 613 37,000  Level Salt Lake Center
Tue 05:01:30 PM 42.1858 -112.4897 65° Northeast 536 617 37,000  Level Salt Lake Center
Tue 05:02:32 PM 42.2461 -112.3083 66° East 532 612 37,000  Level Salt Lake Center
Tue 05:03:33 PM 42.3178 -112.0897 66° East 530 610 37,000  Level Salt Lake Center
Tue 05:04:35 PM 42.3700 -111.9036 69° East 531 611 37,000  Level Salt Lake Center
Tue 05:05:37 PM 42.4072 -111.7144 75° East 523 602 37,000  Level Salt Lake Center
Tue 05:06:38 PM 42.4456 -111.5258 75° East 521 600 37,000  Level Salt Lake Center
Tue 05:07:40 PM 42.4833 -111.3356 75° East 523 602 37,000  Level Salt Lake Center
Tue 05:08:42 PM 42.5211 -111.1469 75° East 521 600 37,000  Level Salt Lake Center
Tue 05:09:43 PM 42.5639 -110.9325 75° East 523 602 37,000  Level Salt Lake Center
Tue 05:10:45 PM 42.5992 -110.7508 75° East 522 601 37,000 48 Level Salt Lake Center
Tue 05:11:47 PM 42.6403 -110.5361 75° East 524 603 37,100  Climbing Salt Lake Center
Tue 05:12:49 PM 42.6753 -110.3536 75° East 523 602 37,000 -49 Descending Salt Lake Center
Tue 05:13:50 PM 42.7111 -110.1619 76° East 521 600 37,000  Level Salt Lake Center
Tue 05:14:52 PM 42.7514 -109.9478 76° East 524 603 37,000  Level Salt Lake Center
Tue 05:16:00 PM 42.7636 -109.7403 75° East  Level FlightAware Approximate
Tue 05:16:56 PM 42.8231 -109.5556 75° East 526 605 37,000  Level Salt Lake Center
Tue 05:17:57 PM 42.8569 -109.3678 76° East 530 610 37,000 49 Level Salt Lake Center
Tue 05:18:59 PM 42.8958 -109.1500 76° East 530 610 37,100  Climbing Salt Lake Center
Tue 05:20:01 PM 42.9286 -108.9689 76° East 519 597 37,000 -48 Descending Salt Lake Center
Tue 05:21:03 PM 42.9603 -108.7875 77° East 515 593 37,000  Level Salt Lake Center
Tue 05:22:05 PM 42.9978 -108.5622 77° East 522 601 37,000  Level Salt Lake Center
Tue 05:23:07 PM 43.0311 -108.3711 77° East 520 598 37,000  Level Salt Lake Center
Tue 05:24:08 PM 43.0631 -108.1775 77° East 524 603 37,000  Level Salt Lake Center
Tue 05:25:10 PM 43.0956 -107.9858 77° East 522 601 37,000  Level Salt Lake Center
Tue 05:26:12 PM 43.1269 -107.7942 77° East 520 598 37,000  Level Salt Lake Center
Tue 05:27:14 PM 43.1581 -107.6042 77° East 517 595 37,000  Level Salt Lake Center
Tue 05:28:16 PM 43.1944 -107.3742 78° East 517 595 37,000  Level Salt Lake Center
Tue 05:29:18 PM 43.2261 -107.1856 77° East 512 589 37,000  Level Salt Lake Center
Tue 05:30:20 PM 43.2547 -106.9967 78° East 510 587 37,000  Level Salt Lake Center
Tue 05:31:21 PM 43.2878 -106.7939 77° East 506 582 37,000  Level Salt Lake Center
Tue 05:32:23 PM 43.3153 -106.6119 78° East 508 585 37,000  Level Salt Lake Center
Tue 05:33:04 PM 43.3344 -106.4911 78° East 505 581 37,000  Level Denver Center
Tue 05:34:06 PM 43.3658 -106.2783 78° East 509 586 37,000  Level Denver Center
Tue 05:35:08 PM 43.3931 -106.0983 78° East 503 579 37,000  Level Denver Center
Tue 05:36:10 PM 43.4242 -105.8869 78° East 504 580 37,000  Level Denver Center
Tue 05:37:12 PM 43.4508 -105.7056 78° East 503 579 37,000  Level Denver Center
Tue 05:38:14 PM 43.4814 -105.4917 79° East 508 585 37,000  Level Denver Center
Tue 05:39:16 PM 43.5075 -105.3086 79° East 509 586 37,000  Level Denver Center
Tue 05:40:19 PM 43.5381 -105.0958 79° East 507 583 37,000  Level Denver Center
Tue 05:41:21 PM 43.5614 -104.9156 80° East 502 578 37,000  Level Denver Center
Tue 05:42:23 PM 43.5908 -104.7031 79° East 502 578 37,000  Level Denver Center
Tue 05:43:25 PM 43.6156 -104.5186 79° East 507 583 37,000  Level Denver Center
Tue 05:44:27 PM 43.6403 -104.3317 80° East 512 589 37,000 48 Level Denver Center
Tue 05:45:29 PM 43.6686 -104.1122 80° East 517 595 37,100 48 Climbing Denver Center
Tue 05:46:31 PM 43.6939 -103.9244 79° East 519 597 37,100  Level Denver Center
Tue 05:47:33 PM 43.7214 -103.7067 80° East 514 592 37,100 -48 Level Denver Center
Tue 05:48:35 PM 43.7439 -103.5253 80° East 502 578 37,000 -97 Descending Denver Center
Tue 05:49:37 PM 43.7700 -103.3181 80° East 493 567 36,900  Descending Denver Center
Tue 05:50:39 PM 43.7917 -103.1400 80° East 490 564 37,000 48 Climbing Denver Center
Tue 05:51:41 PM 43.8169 -102.9303 80° East 493 567 37,000  Level Denver Center
Tue 05:52:43 PM 43.8381 -102.7500 81° East 495 570 37,000  Level Denver Center
Tue 05:53:45 PM 43.8625 -102.5381 81° East 498 573 37,000  Level Denver Center
Tue 05:54:47 PM 43.8822 -102.3467 82° East 498 573 37,000  Level Denver Center
Tue 05:55:49 PM 43.9014 -102.1553 82° East 501 577 37,000  Level Denver Center
Tue 05:56:51 PM 43.9222 -101.9639 81° East 502 578 37,000  Level Denver Center
Tue 05:57:53 PM 43.9417 -101.7736 82° East 501 577 37,000  Level Denver Center
Tue 05:58:56 PM 43.9656 -101.5875 80° East 497 572 37,000  Level Denver Center
Tue 05:59:58 PM 43.9894 -101.3619 82° East 493 567 37,000  Level Denver Center
Tue 06:00:50 PM 44.0044 -101.2114 82° East 495 570 37,000  Level Minneapolis Center
Tue 06:01:52 PM 44.0244 -101.0242 81° East 493 567 37,000  Level Minneapolis Center
Tue 06:02:54 PM 44.0436 -100.8375 82° East 492 566 37,000  Level Minneapolis Center
Tue 06:03:56 PM 44.0622 -100.6489 82° East 492 566 37,000  Level Minneapolis Center
Tue 06:04:58 PM 44.0831 -100.4239 83° East 492 566 37,000  Level Minneapolis Center
Tue 06:06:00 PM 44.1017 -100.2347 82° East 495 570 37,000  Level Minneapolis Center
Tue 06:07:02 PM 44.1189 -100.0483 83° East 491 565 37,000  Level Minneapolis Center
Tue 06:08:04 PM 44.1361 -99.8594 83° East 494 568 37,000  Level Minneapolis Center
Tue 06:09:06 PM 44.1539 -99.6725 82° East 491 565 37,000  Level Minneapolis Center
Tue 06:10:08 PM 44.1733 -99.4456 83° East 494 568 37,000  Level Minneapolis Center
Tue 06:11:11 PM 44.1908 -99.2575 83° East 493 567 37,000  Level Minneapolis Center
Tue 06:12:13 PM 44.2075 -99.0678 83° East 496 571 37,000  Level Minneapolis Center
Tue 06:13:15 PM 44.2231 -98.8792 83° East 492 566 37,000  Level Minneapolis Center
Tue 06:14:17 PM 44.2381 -98.6908 84° East 490 564 37,000  Level Minneapolis Center
Tue 06:15:19 PM 44.2522 -98.5025 84° East 490 564 37,000  Level Minneapolis Center
Tue 06:16:21 PM 44.2686 -98.2819 84° East 491 565 37,000  Level Minneapolis Center
Tue 06:17:23 PM 44.2825 -98.0906 84° East 493 567 37,000  Level Minneapolis Center
Tue 06:18:25 PM 44.2969 -97.8983 84° East 498 573 37,000  Level Minneapolis Center
Tue 06:19:27 PM 44.3106 -97.7081 84° East 495 570 37,000  Level Minneapolis Center
Tue 06:20:29 PM 44.3247 -97.5169 84° East 495 570 37,000  Level Minneapolis Center
Tue 06:21:31 PM 44.3400 -97.2853 85° East 500 575 37,000  Level Minneapolis Center
Tue 06:22:33 PM 44.3539 -97.0933 84° East 498 573 37,000  Level Minneapolis Center
Tue 06:23:36 PM 44.3661 -96.9014 85° East 497 572 37,000  Level Minneapolis Center
Tue 06:24:38 PM 44.3783 -96.7086 85° East 497 572 37,000  Level Minneapolis Center
Tue 06:25:40 PM 44.3903 -96.5147 85° East 498 573 37,000  Level Minneapolis Center
Tue 06:26:42 PM 44.4039 -96.3194 84° East 499 574 37,000  Level Minneapolis Center
Tue 06:27:44 PM 44.4161 -96.1208 85° East 502 578 37,000 -387 Level Minneapolis Center
Tue 06:28:46 PM 44.4267 -95.9233 86° East 503 579 36,200 -919 Descending Minneapolis Center
Tue 06:29:48 PM 44.4386 -95.6872 86° East 505 581 35,100 -1,597 Descending Minneapolis Center
Tue 06:30:50 PM 44.4494 -95.4908 86° East 506 582 32,900 -3,000 Descending Minneapolis Center
Tue 06:31:52 PM 44.4586 -95.2917 86° East 512 589 28,900 -3,968 Descending Minneapolis Center
Tue 06:32:54 PM 44.4736 -95.0950 84° East 510 587 24,700 -3,387 Descending Minneapolis Center
Tue 06:33:56 PM 44.5192 -94.9161 70° East 491 565 21,900 -2,565 Descending Minneapolis Center
Tue 06:34:58 PM 44.5592 -94.7456 72° East 471 542 19,400 -2,736 Descending Minneapolis Center
Tue 06:36:01 PM 44.5961 -94.5858 72° East 400 460 16,200 -3,120 Descending Minneapolis Center
Tue 06:37:03 PM 44.6269 -94.4481 73° East 371 427 12,900 -2,419 Descending Minneapolis Center
Tue 06:38:05 PM 44.6556 -94.3217 72° East 338 389 11,200 -968 Descending Minneapolis Center
Tue 06:39:07 PM 44.6889 -94.1747 72° East 328 377 10,900 -145 Descending Minneapolis Center
Tue 06:40:09 PM 44.7158 -94.0553 72° East 323 372 10,900 -435 Level Minneapolis Center
Tue 06:41:11 PM 44.7597 -93.9689 54° Northeast 281 323 10,000 -968 Descending Minneapolis Center
Tue 06:42:13 PM 44.8261 -93.9233 26° Northeast 266 306 8,900 -1,403 Descending Minneapolis Center
Tue 06:43:15 PM 44.8919 -93.8942 17° North 251 289 7,100 -919 Descending Minneapolis Center
Tue 06:44:17 PM 44.9578 -93.8783 10° North 241 277 7,000 -48 Descending Minneapolis Center
Tue 06:45:19 PM 45.0247 -93.8186 32° Northeast 242 278 7,000 -435 Level Minneapolis Center
Tue 06:46:21 PM 45.0408 -93.7322 75° East 234 269 6,100 -968 Descending Minneapolis Center
Tue 06:47:23 PM 45.0308 -93.6486 100° East 218 251 5,000 -532 Descending Minneapolis Center
Tue 06:48:25 PM 45.0206 -93.5667 100° East 213 245 5,000 -48 Level Minneapolis Center
Tue 06:49:28 PM 44.9997 -93.4933 112° Southeast 200 230 4,900 -528 Descending Minneapolis Center
Tue 06:50:30 PM 44.9725 -93.4300 121° Southeast 189 217 3,900 -968 Descending Minneapolis Center
Tue 06:51:32 PM 44.9453 -93.3678 122° Southeast 156 180 2,900 -823 Descending Minneapolis Center
Tue 06:52:34 PM 44.9247 -93.3194 121° Southeast 144 166 2,200 -677 Descending Minneapolis Center
Tue 06:53:36 PM 44.9047 -93.2733 121° Southeast 139 160 1,500 -677 Descending Minneapolis Center

Login

Don't have an account? Register now (free) for customized features, flight alerts, and more!